Time;durP1;ratioP1;P1;durP2;ratioP2;P2;SDS_P1;SDS_P2;PMS_P1;PMS_P2;Temp;Humidity;BMP_temperature;BMP_pressure;BME280_temperature;BME280_humidity;BME280_pressure;Samples;Min_cycle;Max_cycle;Signal;HPM_P1;HPM_P2
2021/04/22 00:00:54;;;;;;;8.60;3.60;;;;;;;;;;5072815;28;20210;-70
2021/04/22 00:03:21;;;;;;;16.65;6.03;;;;;;;;;;5073906;28;20194;-70
2021/04/22 00:05:48;;;;;;;18.83;3.13;;;;;;;;;;5073182;28;20198;-70
2021/04/22 00:08:14;;;;;;;15.82;4.78;;;;;;;;;;5072827;28;20570;-69
2021/04/22 00:10:43;;;;;;;19.02;4.53;;;;;;;;;;5073816;28;20299;-70
2021/04/22 00:13:10;;;;;;;16.20;3.90;;;;;;;;;;5073511;28;20226;-69
2021/04/22 00:15:37;;;;;;;17.08;5.18;;;;;;;;;;5073371;28;20241;-69
2021/04/22 00:18:11;;;;;;;13.98;4.43;;;;;;;;;;5072738;28;20199;-69
2021/04/22 00:20:38;;;;;;;19.50;4.07;;;;;;;;;;5073351;28;20212;-69
2021/04/22 00:23:05;;;;;;;15.10;4.40;;;;;;;;;;5072716;28;20205;-70
2021/04/22 00:25:32;;;;;;;16.23;5.43;;;;;;;;;;5072994;28;20196;-70
2021/04/22 00:28:00;;;;;;;20.95;4.50;;;;;;;;;;5072992;28;20256;-70
2021/04/22 00:30:27;;;;;;;21.40;4.35;;;;;;;;;;5074539;28;20198;-70
2021/04/22 00:32:54;;;;;;;12.77;3.95;;;;;;;;;;5076233;28;20234;-70
2021/04/22 00:35:21;;;;;;;17.77;4.20;;;;;;;;;;5076533;28;20190;-71
2021/04/22 00:37:47;;;;;;;10.55;3.90;;;;;;;;;;5076438;28;20204;-71
2021/04/22 00:40:16;;;;;;;7.50;3.42;;;;;;;;;;5076315;28;20230;-71
2021/04/22 00:42:43;;;;;;;15.70;4.53;;;;;;;;;;5076002;28;20281;-70
2021/04/22 00:45:11;;;;;;;10.68;4.05;;;;;;;;;;5076364;28;20285;-69
2021/04/22 00:47:38;;;;;;;18.42;4.53;;;;;;;;;;5076746;28;20198;-70
2021/04/22 00:50:06;;;;;;;26.88;5.30;;;;;;;;;;5076331;28;20313;-70
2021/04/22 00:52:33;;;;;;;18.10;4.35;;;;;;;;;;5076265;28;20281;-71
2021/04/22 00:54:59;;;;;;;15.18;5.30;;;;;;;;;;5075869;28;20190;-70
2021/04/22 00:57:27;;;;;;;17.33;5.07;;;;;;;;;;5076501;28;20199;-70
2021/04/22 00:59:56;;;;;;;12.05;4.10;;;;;;;;;;5075787;28;20652;-70
2021/04/22 01:02:24;;;;;;;15.18;4.60;;;;;;;;;;5075963;28;20229;-70
2021/04/22 01:04:51;;;;;;;17.83;4.90;;;;;;;;;;5076013;28;20593;-71
2021/04/22 01:07:18;;;;;;;12.65;4.65;;;;;;;;;;5076141;28;20201;-70
2021/04/22 01:09:45;;;;;;;16.40;4.75;;;;;;;;;;5075652;28;20194;-70
2021/04/22 01:12:12;;;;;;;11.55;4.95;;;;;;;;;;5076031;28;20209;-70
2021/04/22 01:14:40;;;;;;;10.02;3.72;;;;;;;;;;5075842;28;20237;-71
2021/04/22 01:17:06;;;;;;;16.50;5.95;;;;;;;;;;5075764;28;20599;-71
2021/04/22 01:19:34;;;;;;;11.70;4.93;;;;;;;;;;5075738;28;20236;-71
2021/04/22 01:22:02;;;;;;;14.55;4.57;;;;;;;;;;5075328;28;20305;-71
2021/04/22 01:24:29;;;;;;;16.92;5.47;;;;;;;;;;5075665;28;20191;-71
2021/04/22 01:26:55;;;;;;;12.73;4.65;;;;;;;;;;5075642;28;20200;-70
2021/04/22 01:29:22;;;;;;;9.15;4.22;;;;;;;;;;5075247;28;20198;-70
2021/04/22 01:31:49;;;;;;;20.67;5.15;;;;;;;;;;5075240;28;20681;-70
2021/04/22 01:34:15;;;;;;;28.20;5.25;;;;;;;;;;5075968;28;20194;-70
2021/04/22 01:36:43;;;;;;;14.77;5.10;;;;;;;;;;5075417;28;20204;-70
2021/04/22 01:39:12;;;;;;;22.08;6.15;;;;;;;;;;5075388;28;20289;-70
2021/04/22 01:41:39;;;;;;;16.52;5.40;;;;;;;;;;5074124;28;20226;-70
2021/04/22 01:44:06;;;;;;;12.32;5.20;;;;;;;;;;5075652;28;20284;-72
2021/04/22 01:46:33;;;;;;;16.85;5.88;;;;;;;;;;5075074;28;20629;-70
2021/04/22 01:49:00;;;;;;;17.52;4.72;;;;;;;;;;5075006;28;20222;-70
2021/04/22 01:51:26;;;;;;;14.43;4.93;;;;;;;;;;5074803;28;20692;-69
2021/04/22 01:53:53;;;;;;;11.43;5.07;;;;;;;;;;5074737;28;20286;-71
2021/04/22 01:56:21;;;;;;;19.48;5.30;;;;;;;;;;5075050;28;20194;-69
2021/04/22 01:58:48;;;;;;;19.60;4.90;;;;;;;;;;5074914;28;20293;-70
2021/04/22 02:01:15;;;;;;;15.57;4.78;;;;;;;;;;5074812;28;20616;-70
2021/04/22 02:03:41;;;;;;;14.77;4.75;;;;;;;;;;5075126;28;20235;-70
2021/04/22 02:06:10;;;;;;;22.92;6.93;;;;;;;;;;5075009;28;20195;-71
2021/04/22 02:08:37;;;;;;;18.00;5.95;;;;;;;;;;5075326;28;20252;-70
2021/04/22 02:11:04;;;;;;;18.38;6.40;;;;;;;;;;5074330;28;20674;-70
2021/04/22 02:13:32;;;;;;;16.52;5.60;;;;;;;;;;5074404;28;20289;-70
2021/04/22 02:15:59;;;;;;;16.20;5.43;;;;;;;;;;5074695;28;20201;-70
2021/04/22 02:18:25;;;;;;;16.95;6.13;;;;;;;;;;5074359;28;20645;-70
2021/04/22 02:20:52;;;;;;;12.63;5.55;;;;;;;;;;5074514;28;20218;-69
2021/04/22 02:23:20;;;;;;;21.23;6.90;;;;;;;;;;5074669;28;20661;-70
2021/04/22 02:25:47;;;;;;;15.15;4.95;;;;;;;;;;5074466;28;20386;-70
2021/04/22 02:28:14;;;;;;;13.70;5.07;;;;;;;;;;5074386;28;20199;-69
2021/04/22 02:30:43;;;;;;;17.77;5.18;;;;;;;;;;5074391;28;20199;-69
2021/04/22 02:33:10;;;;;;;15.10;4.82;;;;;;;;;;5074306;28;20199;-69
2021/04/22 02:35:38;;;;;;;16.17;6.35;;;;;;;;;;5073988;28;20195;-70
2021/04/22 02:38:06;;;;;;;14.18;5.32;;;;;;;;;;5074589;28;20610;-69
2021/04/22 02:40:34;;;;;;;15.18;4.55;;;;;;;;;;5073838;28;20198;-70
2021/04/22 02:43:01;;;;;;;12.05;5.18;;;;;;;;;;5073812;28;20285;-70
2021/04/22 02:45:28;;;;;;;16.52;4.65;;;;;;;;;;5073707;28;20656;-70
2021/04/22 02:47:56;;;;;;;16.25;5.00;;;;;;;;;;5073749;28;20197;-70
2021/04/22 02:50:25;;;;;;;18.27;5.72;;;;;;;;;;5074076;28;20222;-70
2021/04/22 02:52:52;;;;;;;23.17;5.85;;;;;;;;;;5073960;28;20194;-70
2021/04/22 02:55:19;;;;;;;18.48;5.50;;;;;;;;;;5073906;28;20190;-69
2021/04/22 02:57:45;;;;;;;16.92;5.65;;;;;;;;;;5073921;28;20500;-69
2021/04/22 03:00:14;;;;;;;17.85;6.38;;;;;;;;;;5073550;28;20212;-69
2021/04/22 03:02:40;;;;;;;16.20;5.35;;;;;;;;;;5073473;28;20218;-69
2021/04/22 03:05:09;;;;;;;12.27;4.93;;;;;;;;;;5073536;28;20259;-70
2021/04/22 03:07:36;;;;;;;17.15;6.70;;;;;;;;;;5073968;28;20209;-69
2021/04/22 03:10:03;;;;;;;26.67;6.45;;;;;;;;;;5073332;28;20288;-70
2021/04/22 03:12:30;;;;;;;12.00;5.68;;;;;;;;;;5073987;28;20663;-70
2021/04/22 03:14:57;;;;;;;18.10;5.45;;;;;;;;;;5073264;28;20202;-70
2021/04/22 03:17:23;;;;;;;24.08;6.18;;;;;;;;;;5073163;28;20218;-70
2021/04/22 03:19:50;;;;;;;14.60;5.68;;;;;;;;;;5073153;28;20196;-70
2021/04/22 03:22:17;;;;;;;19.35;5.95;;;;;;;;;;5073167;28;20777;-69
2021/04/22 03:24:44;;;;;;;14.38;5.78;;;;;;;;;;5072854;28;20200;-70
2021/04/22 03:27:11;;;;;;;24.13;5.45;;;;;;;;;;5072836;28;20194;-70
2021/04/22 03:29:38;;;;;;;14.15;4.93;;;;;;;;;;5073440;28;20194;-69
2021/04/22 03:32:05;;;;;;;12.07;5.85;;;;;;;;;;5072798;28;20198;-69
2021/04/22 03:34:31;;;;;;;16.73;5.72;;;;;;;;;;5073034;28;20195;-70
2021/04/22 03:36:58;;;;;;;8.68;4.65;;;;;;;;;;5073362;28;20608;-70
2021/04/22 03:39:26;;;;;;;11.48;4.60;;;;;;;;;;5072634;28;20198;-70
2021/04/22 03:41:52;;;;;;;11.60;5.10;;;;;;;;;;5073019;28;20232;-70
2021/04/22 03:44:19;;;;;;;9.27;4.70;;;;;;;;;;5073494;28;20281;-70
2021/04/22 03:46:46;;;;;;;15.48;5.53;;;;;;;;;;5072680;28;20200;-70
2021/04/22 03:49:12;;;;;;;9.50;4.32;;;;;;;;;;5072983;28;20218;-70
2021/04/22 03:51:39;;;;;;;14.50;6.00;;;;;;;;;;5073245;28;20666;-70
2021/04/22 03:54:06;;;;;;;16.13;4.90;;;;;;;;;;5072967;28;20190;-70
2021/04/22 03:56:34;;;;;;;11.80;4.40;;;;;;;;;;5073322;28;20219;-69
2021/04/22 03:59:01;;;;;;;13.30;4.47;;;;;;;;;;5073874;28;20205;-71
2021/04/22 04:01:27;;;;;;;13.52;5.45;;;;;;;;;;5075412;28;20221;-70
2021/04/22 04:03:54;;;;;;;18.67;6.15;;;;;;;;;;5076292;28;20531;-70
2021/04/22 04:06:21;;;;;;;10.70;5.22;;;;;;;;;;5077616;28;20194;-70
2021/04/22 04:08:48;;;;;;;7.03;4.20;;;;;;;;;;5076486;28;20194;-69
2021/04/22 04:11:14;;;;;;;9.80;4.25;;;;;;;;;;5076849;28;20202;-71
2021/04/22 04:13:42;;;;;;;12.52;5.45;;;;;;;;;;5078389;28;20237;-70
2021/04/22 04:16:09;;;;;;;12.35;4.53;;;;;;;;;;5078425;28;20194;-70
2021/04/22 04:18:35;;;;;;;11.10;4.43;;;;;;;;;;5076531;28;20200;-70
2021/04/22 04:21:02;;;;;;;10.73;5.40;;;;;;;;;;5076492;28;20624;-70
2021/04/22 04:23:29;;;;;;;9.80;4.72;;;;;;;;;;5076368;28;20290;-69
2021/04/22 04:25:55;;;;;;;11.48;4.80;;;;;;;;;;5076431;28;20607;-69
2021/04/22 04:28:22;;;;;;;17.50;6.50;;;;;;;;;;5073622;28;20196;-68
2021/04/22 04:30:50;;;;;;;16.48;5.20;;;;;;;;;;5066567;28;20202;-68
2021/04/22 04:33:16;;;;;;;9.38;4.95;;;;;;;;;;5075355;28;20202;-68
2021/04/22 04:35:43;;;;;;;15.63;5.45;;;;;;;;;;5075667;28;20200;-69
2021/04/22 04:38:10;;;;;;;11.40;5.15;;;;;;;;;;5075233;28;20714;-69
2021/04/22 04:40:37;;;;;;;15.18;5.57;;;;;;;;;;5075606;28;20194;-69
2021/04/22 04:43:04;;;;;;;13.93;4.10;;;;;;;;;;5075041;28;20240;-69
2021/04/22 04:45:31;;;;;;;23.17;6.57;;;;;;;;;;5075486;28;20199;-69
2021/04/22 04:47:58;;;;;;;13.57;5.60;;;;;;;;;;5075551;28;20212;-69
2021/04/22 04:50:25;;;;;;;11.73;6.05;;;;;;;;;;5075475;28;20296;-70
2021/04/22 04:52:52;;;;;;;12.00;5.78;;;;;;;;;;5077309;28;20755;-69
2021/04/22 04:55:19;;;;;;;12.38;4.75;;;;;;;;;;5076544;28;20285;-69
2021/04/22 04:57:45;;;;;;;13.55;4.32;;;;;;;;;;5075749;28;20226;-70
2021/04/22 05:00:13;;;;;;;19.60;5.70;;;;;;;;;;5075572;28;20281;-70
2021/04/22 05:02:40;;;;;;;11.77;4.90;;;;;;;;;;5075640;28;20309;-69
2021/04/22 05:05:08;;;;;;;12.90;5.85;;;;;;;;;;5069222;28;20199;-69
2021/04/22 05:07:35;;;;;;;16.13;5.25;;;;;;;;;;5063998;28;20675;-69
2021/04/22 05:10:02;;;;;;;14.88;4.97;;;;;;;;;;5061328;28;20328;-69
2021/04/22 05:12:28;;;;;;;13.20;4.45;;;;;;;;;;5075664;28;20285;-69
2021/04/22 05:14:55;;;;;;;11.95;4.85;;;;;;;;;;5075645;28;20331;-69
2021/04/22 05:17:22;;;;;;;15.88;4.80;;;;;;;;;;5075126;28;20290;-69
2021/04/22 05:19:48;;;;;;;15.40;6.00;;;;;;;;;;5075472;28;20201;-69
2021/04/22 05:22:16;;;;;;;13.65;4.13;;;;;;;;;;5075015;28;20291;-69
2021/04/22 05:24:43;;;;;;;14.05;5.72;;;;;;;;;;5075154;28;20198;-69
2021/04/22 05:27:10;;;;;;;18.05;5.18;;;;;;;;;;5074911;28;20194;-69
2021/04/22 05:29:36;;;;;;;12.07;5.30;;;;;;;;;;5075171;28;20731;-69
2021/04/22 05:32:03;;;;;;;8.15;5.20;;;;;;;;;;5074761;28;20255;-69
2021/04/22 05:34:30;;;;;;;17.63;5.40;;;;;;;;;;5074250;28;20745;-69
2021/04/22 05:36:57;;;;;;;25.05;5.40;;;;;;;;;;5074936;28;20194;-71
2021/04/22 05:39:24;;;;;;;15.75;5.15;;;;;;;;;;5074909;28;20201;-68
2021/04/22 05:41:51;;;;;;;16.15;4.35;;;;;;;;;;5074819;28;20230;-67
2021/04/22 05:44:18;;;;;;;19.80;4.80;;;;;;;;;;5075380;28;20205;-67
2021/04/22 05:46:45;;;;;;;12.57;4.00;;;;;;;;;;5074514;28;20233;-67
2021/04/22 05:49:12;;;;;;;12.65;4.88;;;;;;;;;;5074851;28;20261;-67
2021/04/22 05:51:40;;;;;;;12.55;4.85;;;;;;;;;;5075325;28;20203;-68
2021/04/22 05:54:08;;;;;;;9.85;4.03;;;;;;;;;;5074654;28;20198;-67
2021/04/22 05:56:35;;;;;;;23.20;5.22;;;;;;;;;;5074992;28;20199;-68
2021/04/22 05:59:02;;;;;;;13.23;4.30;;;;;;;;;;5074600;28;20222;-67
2021/04/22 06:01:29;;;;;;;13.18;5.03;;;;;;;;;;5074062;28;20218;-67
2021/04/22 06:03:55;;;;;;;16.73;4.70;;;;;;;;;;5074967;28;20194;-67
2021/04/22 06:06:22;;;;;;;12.93;4.35;;;;;;;;;;5074370;28;20658;-68
2021/04/22 06:08:49;;;;;;;11.57;4.95;;;;;;;;;;5074418;28;20199;-69
2021/04/22 06:11:17;;;;;;;11.13;4.22;;;;;;;;;;5074421;28;20299;-67
2021/04/22 06:13:45;;;;;;;13.02;4.78;;;;;;;;;;5073874;28;20190;-67
2021/04/22 06:16:13;;;;;;;17.52;4.30;;;;;;;;;;5073849;28;20281;-68
2021/04/22 06:18:40;;;;;;;12.85;4.10;;;;;;;;;;5074103;28;20231;-67
2021/04/22 06:21:07;;;;;;;9.27;4.18;;;;;;;;;;5073783;28;20301;-67
2021/04/22 06:23:34;;;;;;;13.20;4.50;;;;;;;;;;5073617;28;20202;-67
2021/04/22 06:26:00;;;;;;;16.48;5.88;;;;;;;;;;5074138;28;20194;-68
2021/04/22 06:28:27;;;;;;;12.15;4.47;;;;;;;;;;5072954;28;20197;-68
2021/04/22 06:30:55;;;;;;;13.95;4.68;;;;;;;;;;5073562;28;20195;-68
2021/04/22 06:33:21;;;;;;;16.38;5.28;;;;;;;;;;5073705;28;20195;-68
2021/04/22 06:35:48;;;;;;;12.13;4.10;;;;;;;;;;5073598;28;20202;-67
2021/04/22 06:38:15;;;;;;;12.25;4.78;;;;;;;;;;5073595;28;20198;-68
2021/04/22 06:40:42;;;;;;;15.95;5.00;;;;;;;;;;5073144;28;20241;-67
2021/04/22 06:43:12;;;;;;;7.43;4.05;;;;;;;;;;5073025;28;20633;-67
2021/04/22 06:45:40;;;;;;;11.88;4.15;;;;;;;;;;5073350;28;20259;-68
2021/04/22 06:48:09;;;;;;;9.73;3.25;;;;;;;;;;5073955;28;20195;-68
2021/04/22 06:50:36;;;;;;;9.40;4.18;;;;;;;;;;5072992;28;20237;-67
2021/04/22 06:53:02;;;;;;;15.88;3.97;;;;;;;;;;5073726;28;20230;-68
2021/04/22 06:55:29;;;;;;;13.60;4.63;;;;;;;;;;5073587;28;20315;-67
2021/04/22 06:57:56;;;;;;;12.63;4.20;;;;;;;;;;5073604;28;20286;-68
2021/04/22 07:00:24;;;;;;;12.00;3.80;;;;;;;;;;5073081;28;20226;-67
2021/04/22 07:02:51;;;;;;;10.77;4.65;;;;;;;;;;5073496;28;20654;-68
2021/04/22 07:05:19;;;;;;;9.82;2.90;;;;;;;;;;5073501;28;20370;-67
2021/04/22 07:07:46;;;;;;;7.10;3.85;;;;;;;;;;5073104;28;20287;-67
2021/04/22 07:10:13;;;;;;;12.75;4.43;;;;;;;;;;5073403;28;20686;-68
2021/04/22 07:12:40;;;;;;;16.70;3.58;;;;;;;;;;5073180;28;20225;-70
2021/04/22 07:15:08;;;;;;;7.57;4.47;;;;;;;;;;5073296;28;20285;-68
2021/04/22 07:17:35;;;;;;;5.03;2.95;;;;;;;;;;5073317;28;20535;-69
2021/04/22 07:20:02;;;;;;;6.45;4.25;;;;;;;;;;5073396;28;20293;-69
2021/04/22 07:22:29;;;;;;;13.05;3.60;;;;;;;;;;5072888;28;20223;-70
2021/04/22 07:24:56;;;;;;;9.18;3.72;;;;;;;;;;5073285;28;20541;-68
2021/04/22 07:27:23;;;;;;;11.88;4.55;;;;;;;;;;5072904;28;20228;-69
2021/04/22 07:29:50;;;;;;;9.80;4.18;;;;;;;;;;5073440;28;20289;-69
2021/04/22 07:32:19;;;;;;;13.18;3.63;;;;;;;;;;5073575;28;20202;-69
2021/04/22 07:34:47;;;;;;;10.82;3.30;;;;;;;;;;5073178;28;20196;-68
2021/04/22 07:37:14;;;;;;;8.02;3.35;;;;;;;;;;5073042;28;20200;-68
2021/04/22 07:39:42;;;;;;;11.55;3.75;;;;;;;;;;5073441;28;20552;-69
2021/04/22 07:42:08;;;;;;;13.30;4.70;;;;;;;;;;5077311;28;20222;-68
2021/04/22 07:44:35;;;;;;;10.18;3.10;;;;;;;;;;5077013;28;20324;-69
2021/04/22 07:47:02;;;;;;;11.43;4.00;;;;;;;;;;5077529;28;20288;-68
2021/04/22 07:49:29;;;;;;;7.22;3.75;;;;;;;;;;5077052;28;20276;-68
2021/04/22 07:51:56;;;;;;;6.32;3.90;;;;;;;;;;5077251;28;20198;-69
2021/04/22 07:54:23;;;;;;;16.20;4.78;;;;;;;;;;5077387;28;20234;-69
2021/04/22 07:56:50;;;;;;;5.47;3.10;;;;;;;;;;5079005;28;20620;-69
2021/04/22 07:59:17;;;;;;;10.48;2.92;;;;;;;;;;5077135;28;20251;-69
2021/04/22 08:01:44;;;;;;;10.98;3.13;;;;;;;;;;5076690;28;20226;-69
2021/04/22 08:04:10;;;;;;;9.07;3.45;;;;;;;;;;5077264;28;20252;-69
2021/04/22 08:06:37;;;;;;;9.00;3.47;;;;;;;;;;5076646;28;20199;-69
2021/04/22 08:09:05;;;;;;;11.02;3.85;;;;;;;;;;5076688;28;20272;-68
2021/04/22 08:11:32;;;;;;;6.13;3.47;;;;;;;;;;5077108;28;20238;-68
2021/04/22 08:14:01;;;;;;;16.40;4.13;;;;;;;;;;5076781;28;20300;-67
2021/04/22 08:16:28;;;;;;;11.38;3.78;;;;;;;;;;5076711;28;20199;-68
2021/04/22 08:18:55;;;;;;;8.80;3.20;;;;;;;;;;5076733;28;20542;-69
2021/04/22 08:21:21;;;;;;;7.47;3.20;;;;;;;;;;5076039;28;20214;-68
2021/04/22 08:23:48;;;;;;;4.70;3.05;;;;;;;;;;5076584;28;20200;-68
2021/04/22 08:26:18;;;;;;;12.23;4.13;;;;;;;;;;5076550;28;20207;-68
2021/04/22 08:28:45;;;;;;;5.97;3.20;;;;;;;;;;5076613;28;20201;-68
2021/04/22 08:31:18;;;;;;;9.32;3.35;;;;;;;;;;5076714;28;20293;-68
2021/04/22 08:33:47;;;;;;;14.23;3.83;;;;;;;;;;5076850;28;20194;-68
2021/04/22 08:36:13;;;;;;;5.43;3.58;;;;;;;;;;5076133;28;20200;-68
2021/04/22 08:38:40;;;;;;;8.73;3.55;;;;;;;;;;5076290;28;20231;-69
2021/04/22 08:41:08;;;;;;;6.13;3.85;;;;;;;;;;5075828;28;20197;-68
2021/04/22 08:43:34;;;;;;;10.90;4.53;;;;;;;;;;5075988;28;20198;-68
2021/04/22 08:46:01;;;;;;;10.55;3.35;;;;;;;;;;5076190;28;20228;-68
2021/04/22 08:48:29;;;;;;;7.85;3.53;;;;;;;;;;5076031;28;20609;-67
2021/04/22 08:50:56;;;;;;;9.25;4.47;;;;;;;;;;5075311;28;20270;-69
2021/04/22 08:53:24;;;;;;;11.63;3.70;;;;;;;;;;5076726;28;20679;-70
2021/04/22 08:55:51;;;;;;;8.60;3.90;;;;;;;;;;5076003;28;20255;-69
2021/04/22 08:58:18;;;;;;;13.10;4.07;;;;;;;;;;5077909;28;20286;-68
2021/04/22 09:00:46;;;;;;;5.47;3.10;;;;;;;;;;5077795;28;20710;-68
2021/04/22 09:03:13;;;;;;;10.30;3.42;;;;;;;;;;5078004;28;20276;-70
2021/04/22 09:05:40;;;;;;;12.82;3.83;;;;;;;;;;5076159;28;20232;-70
2021/04/22 09:08:08;;;;;;;9.55;3.58;;;;;;;;;;5075969;28;20202;-70
2021/04/22 09:10:35;;;;;;;14.98;4.22;;;;;;;;;;5076453;28;20198;-69
2021/04/22 09:13:03;;;;;;;14.60;4.57;;;;;;;;;;5076561;28;20202;-69
2021/04/22 09:15:31;;;;;;;5.45;3.03;;;;;;;;;;5075779;28;20232;-70
2021/04/22 09:17:59;;;;;;;12.20;4.07;;;;;;;;;;5075762;28;20203;-69
2021/04/22 09:20:28;;;;;;;8.35;3.70;;;;;;;;;;5075505;28;20201;-69
2021/04/22 09:22:56;;;;;;;8.02;3.58;;;;;;;;;;5075631;28;20279;-68
2021/04/22 09:25:25;;;;;;;11.02;3.70;;;;;;;;;;5076393;28;20222;-68
2021/04/22 09:27:55;;;;;;;7.47;3.83;;;;;;;;;;5075691;28;20195;-69
2021/04/22 09:30:30;;;;;;;12.93;4.53;;;;;;;;;;5076297;28;20532;-68
2021/04/22 09:32:57;;;;;;;18.92;5.05;;;;;;;;;;5076345;28;20198;-69
2021/04/22 09:35:26;;;;;;;7.57;3.22;;;;;;;;;;5075400;28;20567;-70
2021/04/22 09:37:53;;;;;;;17.13;4.32;;;;;;;;;;5075361;28;20200;-69
2021/04/22 09:40:24;;;;;;;12.13;3.83;;;;;;;;;;5074972;28;20276;-69
2021/04/22 09:42:52;;;;;;;9.75;4.47;;;;;;;;;;5075720;28;20547;-69
2021/04/22 09:45:20;;;;;;;8.73;3.55;;;;;;;;;;5074607;28;20194;-68
2021/04/22 09:47:47;;;;;;;7.78;4.00;;;;;;;;;;5075735;28;20195;-69
2021/04/22 09:50:16;;;;;;;14.80;4.85;;;;;;;;;;5075181;28;20265;-69
2021/04/22 09:52:44;;;;;;;12.07;5.15;;;;;;;;;;5075025;28;20200;-70
2021/04/22 09:55:12;;;;;;;10.23;4.65;;;;;;;;;;5074884;28;20204;-69
2021/04/22 09:57:40;;;;;;;17.17;5.40;;;;;;;;;;5074803;28;20341;-68
2021/04/22 10:00:09;;;;;;;9.45;4.70;;;;;;;;;;5074525;28;20728;-68
2021/04/22 10:02:43;;;;;;;11.00;4.40;;;;;;;;;;5073542;28;20689;-69
2021/04/22 10:05:17;;;;;;;5.38;4.45;;;;;;;;;;5075185;28;20200;-70
2021/04/22 10:07:44;;;;;;;9.02;4.30;;;;;;;;;;5074523;28;20201;-69
2021/04/22 10:10:16;;;;;;;10.90;4.93;;;;;;;;;;5075044;28;20558;-69
2021/04/22 10:12:43;;;;;;;9.40;4.15;;;;;;;;;;5075028;28;20199;-69
2021/04/22 10:15:11;;;;;;;11.80;4.15;;;;;;;;;;5074557;28;20620;-68
2021/04/22 10:17:38;;;;;;;9.32;4.03;;;;;;;;;;5074386;28;20615;-69
2021/04/22 10:20:06;;;;;;;14.68;3.72;;;;;;;;;;5073895;28;20202;-69
2021/04/22 10:22:33;;;;;;;12.98;4.97;;;;;;;;;;5073905;28;20246;-69
2021/04/22 10:25:01;;;;;;;12.68;3.72;;;;;;;;;;5074317;28;20704;-69
2021/04/22 10:27:29;;;;;;;5.25;3.33;;;;;;;;;;5074936;28;20201;-69
2021/04/22 10:29:57;;;;;;;9.13;4.32;;;;;;;;;;5076680;28;20194;-71
2021/04/22 10:32:24;;;;;;;6.50;3.65;;;;;;;;;;5076359;28;20210;-68
2021/04/22 10:34:52;;;;;;;11.30;4.25;;;;;;;;;;5074183;28;20271;-69
2021/04/22 10:37:18;;;;;;;10.05;4.47;;;;;;;;;;5074000;28;20239;-71
2021/04/22 10:39:46;;;;;;;12.85;4.95;;;;;;;;;;5073569;28;20246;-68
2021/04/22 10:42:13;;;;;;;10.25;4.75;;;;;;;;;;5073405;28;20698;-68
2021/04/22 10:44:40;;;;;;;6.78;6.15;;;;;;;;;;5074034;28;20239;-68
2021/04/22 10:47:07;;;;;;;9.82;4.70;;;;;;;;;;5073550;28;20199;-69
2021/04/22 10:49:34;;;;;;;7.55;4.15;;;;;;;;;;5073754;28;20231;-69
2021/04/22 10:52:02;;;;;;;14.32;4.50;;;;;;;;;;5073834;28;20232;-69
2021/04/22 10:54:29;;;;;;;10.25;4.78;;;;;;;;;;5073678;28;20626;-69
2021/04/22 10:57:02;;;;;;;15.80;4.60;;;;;;;;;;5073715;28;20287;-68
2021/04/22 10:59:29;;;;;;;10.05;4.65;;;;;;;;;;5073784;28;20270;-68
2021/04/22 11:01:56;;;;;;;10.10;5.28;;;;;;;;;;5073569;28;20359;-69
2021/04/22 11:04:23;;;;;;;7.78;4.10;;;;;;;;;;5073511;28;20618;-67
2021/04/22 11:06:50;;;;;;;10.65;4.90;;;;;;;;;;5073499;28;20227;-68
2021/04/22 11:09:20;;;;;;;9.93;5.18;;;;;;;;;;5073352;28;20489;-68
2021/04/22 11:11:54;;;;;;;10.23;4.40;;;;;;;;;;5073569;28;20239;-68
2021/04/22 11:14:21;;;;;;;8.68;4.90;;;;;;;;;;5073457;28;20234;-69
2021/04/22 11:16:51;;;;;;;15.95;5.53;;;;;;;;;;5073059;28;20233;-68
2021/04/22 11:19:19;;;;;;;8.52;5.20;;;;;;;;;;5072981;28;20189;-68
2021/04/22 11:21:51;;;;;;;13.30;5.60;;;;;;;;;;5073268;28;20261;-69
2021/04/22 11:24:27;;;;;;;11.23;5.65;;;;;;;;;;5073117;28;20295;-70
2021/04/22 11:26:59;;;;;;;18.05;5.45;;;;;;;;;;5073421;28;20191;-69
2021/04/22 11:29:25;;;;;;;12.68;4.63;;;;;;;;;;5073047;28;20189;-69
2021/04/22 11:31:53;;;;;;;13.00;4.50;;;;;;;;;;5073244;28;20679;-70
2021/04/22 11:34:30;;;;;;;9.45;4.15;;;;;;;;;;5073211;28;20288;-70
2021/04/22 11:36:58;;;;;;;10.60;4.38;;;;;;;;;;5073661;28;20192;-68
2021/04/22 11:39:31;;;;;;;10.50;4.63;;;;;;;;;;5073286;28;20287;-68
2021/04/22 11:42:00;;;;;;;9.80;5.28;;;;;;;;;;5073276;28;20717;-68
2021/04/22 11:44:34;;;;;;;9.00;3.65;;;;;;;;;;5073153;28;20205;-68
2021/04/22 11:47:01;;;;;;;6.18;3.47;;;;;;;;;;5073292;28;20235;-69
2021/04/22 11:49:28;;;;;;;8.82;4.28;;;;;;;;;;5072448;28;20235;-69
2021/04/22 11:51:56;;;;;;;5.60;3.90;;;;;;;;;;5072996;28;20205;-69
2021/04/22 11:54:25;;;;;;;7.45;4.65;;;;;;;;;;5072586;28;20236;-68
2021/04/22 11:56:55;;;;;;;10.35;4.13;;;;;;;;;;5073234;28;20655;-70
2021/04/22 11:59:22;;;;;;;8.80;3.53;;;;;;;;;;5072941;28;20671;-70
2021/04/22 12:01:53;;;;;;;9.20;4.20;;;;;;;;;;5072718;28;20227;-68
2021/04/22 12:04:20;;;;;;;9.20;4.60;;;;;;;;;;5073114;28;20211;-68
2021/04/22 12:06:51;;;;;;;12.93;5.30;;;;;;;;;;5073151;28;20207;-68
2021/04/22 12:09:27;;;;;;;15.55;3.83;;;;;;;;;;5072788;28;20322;-68
2021/04/22 12:11:54;;;;;;;6.45;4.28;;;;;;;;;;5073098;28;20299;-68
2021/04/22 12:14:28;;;;;;;6.53;4.53;;;;;;;;;;5072836;28;20191;-68
2021/04/22 12:16:55;;;;;;;7.47;3.60;;;;;;;;;;5073026;28;20284;-68
2021/04/22 12:19:26;;;;;;;5.93;3.78;;;;;;;;;;5072848;28;20622;-68
2021/04/22 12:21:53;;;;;;;10.00;3.97;;;;;;;;;;5073456;28;20281;-70
2021/04/22 12:24:23;;;;;;;8.55;4.70;;;;;;;;;;5072911;28;20243;-68
2021/04/22 12:26:51;;;;;;;5.47;3.92;;;;;;;;;;5074539;28;20196;-69
2021/04/22 12:29:20;;;;;;;7.95;4.00;;;;;;;;;;5076639;28;20206;-68
2021/04/22 12:31:48;;;;;;;7.68;5.03;;;;;;;;;;5076542;28;20211;-69
2021/04/22 12:34:15;;;;;;;7.20;3.83;;;;;;;;;;5076069;28;20246;-69
2021/04/22 12:36:52;;;;;;;9.25;4.35;;;;;;;;;;5076333;28;20445;-68
2021/04/22 12:39:23;;;;;;;9.33;4.53;;;;;;;;;;5076367;28;20222;-69
2021/04/22 12:41:51;;;;;;;7.40;4.13;;;;;;;;;;5075821;28;20483;-70
2021/04/22 12:44:20;;;;;;;8.60;4.07;;;;;;;;;;5075839;28;20449;-69
2021/04/22 12:46:46;;;;;;;10.65;4.10;;;;;;;;;;5075341;28;20442;-65
2021/04/22 12:49:16;;;;;;;5.73;3.70;;;;;;;;;;5075846;28;20254;-68
2021/04/22 12:51:43;;;;;;;10.55;4.10;;;;;;;;;;5075321;28;20473;-69
2021/04/22 12:54:10;;;;;;;6.07;4.15;;;;;;;;;;5075804;28;20658;-69
2021/04/22 12:56:37;;;;;;;4.77;3.80;;;;;;;;;;5075957;28;20202;-69
2021/04/22 12:59:07;;;;;;;4.87;3.90;;;;;;;;;;5075593;28;20452;-68
2021/04/22 13:01:34;;;;;;;6.93;3.73;;;;;;;;;;5076514;28;20452;-69
2021/04/22 13:04:02;;;;;;;6.63;3.87;;;;;;;;;;5076085;28;20930;-68
2021/04/22 13:06:29;;;;;;;11.73;4.30;;;;;;;;;;5075966;28;20438;-68
2021/04/22 13:08:58;;;;;;;7.55;4.28;;;;;;;;;;5074821;28;20559;-68
2021/04/22 13:11:29;;;;;;;4.25;3.38;;;;;;;;;;5075502;28;20208;-68
2021/04/22 13:13:56;;;;;;;6.13;3.92;;;;;;;;;;5075635;28;20206;-68
2021/04/22 13:16:25;;;;;;;6.57;4.90;;;;;;;;;;5075612;28;20277;-69
2021/04/22 13:18:57;;;;;;;7.68;4.05;;;;;;;;;;5075541;28;20523;-67
2021/04/22 13:21:25;;;;;;;8.33;3.73;;;;;;;;;;5075773;28;20221;-68
2021/04/22 13:23:52;;;;;;;13.48;3.83;;;;;;;;;;5075813;28;20525;-68
2021/04/22 13:26:21;;;;;;;5.07;4.13;;;;;;;;;;5075139;28;20292;-69
2021/04/22 13:28:48;;;;;;;9.63;3.88;;;;;;;;;;5075168;28;20456;-68
2021/04/22 13:31:15;;;;;;;8.00;3.67;;;;;;;;;;5075148;28;20655;-69
2021/04/22 13:33:43;;;;;;;5.60;4.00;;;;;;;;;;5075249;28;20494;-68
2021/04/22 13:36:11;;;;;;;8.13;3.80;;;;;;;;;;5074859;28;20439;-68
2021/04/22 13:38:38;;;;;;;9.50;4.47;;;;;;;;;;5074772;28;20444;-69
2021/04/22 13:41:08;;;;;;;13.23;3.85;;;;;;;;;;5074936;28;20573;-68
2021/04/22 13:43:36;;;;;;;11.00;4.00;;;;;;;;;;5074845;28;20218;-70
2021/04/22 13:46:03;;;;;;;3.63;3.30;;;;;;;;;;5074575;28;20250;-69
2021/04/22 13:48:32;;;;;;;6.55;3.25;;;;;;;;;;5074673;28;20444;-69
2021/04/22 13:51:10;;;;;;;6.30;4.13;;;;;;;;;;5075137;28;20614;-68
2021/04/22 13:53:37;;;;;;;5.60;3.73;;;;;;;;;;5074608;28;20533;-69
2021/04/22 13:56:04;;;;;;;6.83;3.57;;;;;;;;;;5074724;28;20464;-69
2021/04/22 13:58:31;;;;;;;4.07;3.23;;;;;;;;;;5074369;28;20498;-69
2021/04/22 14:00:58;;;;;;;10.27;3.80;;;;;;;;;;5074969;28;20524;-68
2021/04/22 14:03:31;;;;;;;8.80;3.63;;;;;;;;;;5077043;28;20582;-69
2021/04/22 14:05:58;;;;;;;14.83;3.60;;;;;;;;;;5077536;28;20523;-69
2021/04/22 14:08:30;;;;;;;7.23;3.80;;;;;;;;;;5076344;28;20618;-69
2021/04/22 14:11:00;;;;;;;4.73;3.70;;;;;;;;;;5074400;28;20515;-70
2021/04/22 14:13:27;;;;;;;7.90;4.00;;;;;;;;;;5075065;28;20436;-68
2021/04/22 14:15:54;;;;;;;6.50;3.40;;;;;;;;;;5075250;28;20476;-69
2021/04/22 14:18:21;;;;;;;9.50;4.00;;;;;;;;;;5074374;28;20577;-69
2021/04/22 14:20:48;;;;;;;9.80;3.43;;;;;;;;;;5074336;28;20942;-69
2021/04/22 14:23:15;;;;;;;6.23;3.87;;;;;;;;;;5073797;28;20992;-69
2021/04/22 14:25:42;;;;;;;4.73;4.07;;;;;;;;;;5073834;28;20483;-68
2021/04/22 14:28:09;;;;;;;5.60;4.13;;;;;;;;;;5073834;28;20437;-67
2021/04/22 14:30:36;;;;;;;10.67;4.60;;;;;;;;;;5073528;28;20476;-68
2021/04/22 14:33:02;;;;;;;5.90;4.10;;;;;;;;;;5074190;28;20822;-68
2021/04/22 14:35:29;;;;;;;9.30;4.27;;;;;;;;;;5073873;28;20451;-68